sensor_id;sensor_type;location;lat;lon;timestamp;P1;durP1;ratioP1;P2;durP2;ratioP2
22929;SDS011;11630;42.660;23.292;2023-03-14T00:01:40;22.67;;;13.43;;
22929;SDS011;11630;42.660;23.292;2023-03-14T00:04:11;26.17;;;14.97;;
22929;SDS011;11630;42.660;23.292;2023-03-14T00:06:43;23.97;;;13.53;;
22929;SDS011;11630;42.660;23.292;2023-03-14T00:09:14;24.30;;;13.63;;
22929;SDS011;11630;42.660;23.292;2023-03-14T00:11:45;24.13;;;12.83;;
22929;SDS011;11630;42.660;23.292;2023-03-14T00:14:17;19.73;;;12.90;;
22929;SDS011;11630;42.660;23.292;2023-03-14T00:16:48;23.83;;;13.80;;
22929;SDS011;11630;42.660;23.292;2023-03-14T00:19:19;18.80;;;12.17;;
22929;SDS011;11630;42.660;23.292;2023-03-14T00:21:50;21.80;;;12.60;;
22929;SDS011;11630;42.660;23.292;2023-03-14T00:24:21;16.47;;;11.37;;
22929;SDS011;11630;42.660;23.292;2023-03-14T00:26:55;21.60;;;11.60;;
22929;SDS011;11630;42.660;23.292;2023-03-14T00:29:26;20.70;;;12.83;;
22929;SDS011;11630;42.660;23.292;2023-03-14T00:31:55;18.00;;;12.63;;
22929;SDS011;11630;42.660;23.292;2023-03-14T00:34:30;18.43;;;12.17;;
22929;SDS011;11630;42.660;23.292;2023-03-14T00:37:01;17.00;;;12.33;;
22929;SDS011;11630;42.660;23.292;2023-03-14T00:39:32;16.53;;;12.33;;
22929;SDS011;11630;42.660;23.292;2023-03-14T00:42:05;22.90;;;12.63;;
22929;SDS011;11630;42.660;23.292;2023-03-14T00:44:35;19.63;;;13.60;;
22929;SDS011;11630;42.660;23.292;2023-03-14T00:47:07;16.23;;;11.23;;
22929;SDS011;11630;42.660;23.292;2023-03-14T00:49:38;20.17;;;13.23;;
22929;SDS011;11630;42.660;23.292;2023-03-14T00:52:08;17.77;;;11.80;;
22929;SDS011;11630;42.660;23.292;2023-03-14T00:54:39;21.17;;;13.33;;
22929;SDS011;11630;42.660;23.292;2023-03-14T00:57:10;21.03;;;12.33;;
22929;SDS011;11630;42.660;23.292;2023-03-14T00:59:41;21.33;;;12.33;;
22929;SDS011;11630;42.660;23.292;2023-03-14T01:02:12;21.90;;;13.10;;
22929;SDS011;11630;42.660;23.292;2023-03-14T01:04:43;20.40;;;13.30;;
22929;SDS011;11630;42.660;23.292;2023-03-14T01:07:15;20.60;;;12.47;;
22929;SDS011;11630;42.660;23.292;2023-03-14T01:09:45;19.40;;;11.73;;
22929;SDS011;11630;42.660;23.292;2023-03-14T01:12:17;18.80;;;12.30;;
22929;SDS011;11630;42.660;23.292;2023-03-14T01:14:47;18.90;;;12.50;;
22929;SDS011;11630;42.660;23.292;2023-03-14T01:17:18;20.70;;;12.37;;
22929;SDS011;11630;42.660;23.292;2023-03-14T01:19:53;21.97;;;13.77;;
22929;SDS011;11630;42.660;23.292;2023-03-14T01:22:24;21.00;;;13.97;;
22929;SDS011;11630;42.660;23.292;2023-03-14T01:24:55;20.37;;;12.73;;
22929;SDS011;11630;42.660;23.292;2023-03-14T01:27:26;18.13;;;12.67;;
22929;SDS011;11630;42.660;23.292;2023-03-14T01:29:57;20.73;;;12.70;;
22929;SDS011;11630;42.660;23.292;2023-03-14T01:32:28;20.13;;;12.93;;
22929;SDS011;11630;42.660;23.292;2023-03-14T01:34:59;23.93;;;13.80;;
22929;SDS011;11630;42.660;23.292;2023-03-14T01:37:34;19.77;;;13.87;;
22929;SDS011;11630;42.660;23.292;2023-03-14T01:40:03;18.33;;;13.23;;
22929;SDS011;11630;42.660;23.292;2023-03-14T01:42:35;23.87;;;14.13;;
22929;SDS011;11630;42.660;23.292;2023-03-14T01:45:53;18.43;;;12.00;;
22929;SDS011;11630;42.660;23.292;2023-03-14T01:47:47;24.40;;;14.07;;
22929;SDS011;11630;42.660;23.292;2023-03-14T01:50:18;18.43;;;13.00;;
22929;SDS011;11630;42.660;23.292;2023-03-14T01:52:49;23.03;;;12.97;;
22929;SDS011;11630;42.660;23.292;2023-03-14T01:55:21;22.63;;;13.20;;
22929;SDS011;11630;42.660;23.292;2023-03-14T01:57:56;19.33;;;13.30;;
22929;SDS011;11630;42.660;23.292;2023-03-14T02:00:27;23.07;;;13.23;;
22929;SDS011;11630;42.660;23.292;2023-03-14T02:03:00;22.00;;;13.90;;
22929;SDS011;11630;42.660;23.292;2023-03-14T02:05:34;31.17;;;14.30;;
22929;SDS011;11630;42.660;23.292;2023-03-14T02:08:07;19.43;;;14.03;;
22929;SDS011;11630;42.660;23.292;2023-03-14T02:10:45;20.63;;;14.13;;
22929;SDS011;11630;42.660;23.292;2023-03-14T02:13:17;18.83;;;14.67;;
22929;SDS011;11630;42.660;23.292;2023-03-14T02:15:49;21.53;;;13.67;;
22929;SDS011;11630;42.660;23.292;2023-03-14T02:18:20;20.63;;;12.60;;
22929;SDS011;11630;42.660;23.292;2023-03-14T02:20:53;19.43;;;13.10;;
22929;SDS011;11630;42.660;23.292;2023-03-14T02:26:11;19.67;;;13.07;;
22929;SDS011;11630;42.660;23.292;2023-03-14T02:28:45;16.07;;;12.67;;
22929;SDS011;11630;42.660;23.292;2023-03-14T02:31:15;21.07;;;12.40;;
22929;SDS011;11630;42.660;23.292;2023-03-14T02:33:47;17.33;;;12.80;;
22929;SDS011;11630;42.660;23.292;2023-03-14T02:36:18;28.77;;;13.00;;
22929;SDS011;11630;42.660;23.292;2023-03-14T02:38:58;15.73;;;12.13;;
22929;SDS011;11630;42.660;23.292;2023-03-14T02:41:36;17.93;;;11.83;;
22929;SDS011;11630;42.660;23.292;2023-03-14T02:44:07;16.80;;;12.37;;
22929;SDS011;11630;42.660;23.292;2023-03-14T02:46:38;16.07;;;11.53;;
22929;SDS011;11630;42.660;23.292;2023-03-14T02:49:10;20.70;;;12.40;;
22929;SDS011;11630;42.660;23.292;2023-03-14T02:51:41;15.40;;;11.37;;
22929;SDS011;11630;42.660;23.292;2023-03-14T02:54:13;21.53;;;12.57;;
22929;SDS011;11630;42.660;23.292;2023-03-14T02:56:44;18.10;;;12.67;;
22929;SDS011;11630;42.660;23.292;2023-03-14T02:59:16;19.43;;;13.73;;
22929;SDS011;11630;42.660;23.292;2023-03-14T03:01:52;21.53;;;13.27;;
22929;SDS011;11630;42.660;23.292;2023-03-14T03:04:23;21.50;;;12.97;;
22929;SDS011;11630;42.660;23.292;2023-03-14T03:06:53;20.40;;;13.97;;
22929;SDS011;11630;42.660;23.292;2023-03-14T03:09:24;19.77;;;12.50;;
22929;SDS011;11630;42.660;23.292;2023-03-14T03:11:55;22.67;;;13.43;;
22929;SDS011;11630;42.660;23.292;2023-03-14T03:14:26;18.27;;;12.73;;
22929;SDS011;11630;42.660;23.292;2023-03-14T03:16:57;27.20;;;14.13;;
22929;SDS011;11630;42.660;23.292;2023-03-14T03:19:28;29.83;;;12.80;;
22929;SDS011;11630;42.660;23.292;2023-03-14T03:21:58;22.80;;;13.30;;
22929;SDS011;11630;42.660;23.292;2023-03-14T03:24:28;19.23;;;12.00;;
22929;SDS011;11630;42.660;23.292;2023-03-14T03:26:59;16.90;;;11.93;;
22929;SDS011;11630;42.660;23.292;2023-03-14T03:29:30;17.67;;;11.97;;
22929;SDS011;11630;42.660;23.292;2023-03-14T03:32:00;17.97;;;12.00;;
22929;SDS011;11630;42.660;23.292;2023-03-14T03:34:30;17.20;;;11.63;;
22929;SDS011;11630;42.660;23.292;2023-03-14T03:37:01;20.97;;;12.10;;
22929;SDS011;11630;42.660;23.292;2023-03-14T03:39:32;17.83;;;11.93;;
22929;SDS011;11630;42.660;23.292;2023-03-14T03:42:03;16.23;;;11.17;;
22929;SDS011;11630;42.660;23.292;2023-03-14T03:44:34;19.20;;;11.17;;
22929;SDS011;11630;42.660;23.292;2023-03-14T03:47:04;20.87;;;11.33;;
22929;SDS011;11630;42.660;23.292;2023-03-14T03:49:35;19.33;;;11.13;;
22929;SDS011;11630;42.660;23.292;2023-03-14T03:52:10;13.97;;;10.27;;
22929;SDS011;11630;42.660;23.292;2023-03-14T03:54:42;23.33;;;10.77;;
22929;SDS011;11630;42.660;23.292;2023-03-14T03:57:15;16.60;;;11.37;;
22929;SDS011;11630;42.660;23.292;2023-03-14T03:59:45;20.57;;;11.10;;
22929;SDS011;11630;42.660;23.292;2023-03-14T04:02:16;19.73;;;12.40;;
22929;SDS011;11630;42.660;23.292;2023-03-14T04:04:47;16.97;;;11.53;;
22929;SDS011;11630;42.660;23.292;2023-03-14T04:07:18;17.70;;;12.03;;
22929;SDS011;11630;42.660;23.292;2023-03-14T04:09:48;17.87;;;11.87;;
22929;SDS011;11630;42.660;23.292;2023-03-14T04:12:19;20.30;;;12.30;;
22929;SDS011;11630;42.660;23.292;2023-03-14T04:14:50;20.70;;;11.70;;
22929;SDS011;11630;42.660;23.292;2023-03-14T04:17:21;20.47;;;11.90;;
22929;SDS011;11630;42.660;23.292;2023-03-14T04:19:52;17.53;;;12.00;;
22929;SDS011;11630;42.660;23.292;2023-03-14T04:22:23;18.93;;;12.00;;
22929;SDS011;11630;42.660;23.292;2023-03-14T04:24:53;28.60;;;12.57;;
22929;SDS011;11630;42.660;23.292;2023-03-14T04:27:24;18.63;;;12.20;;
22929;SDS011;11630;42.660;23.292;2023-03-14T04:29:55;15.13;;;11.70;;
22929;SDS011;11630;42.660;23.292;2023-03-14T04:32:30;21.47;;;11.47;;
22929;SDS011;11630;42.660;23.292;2023-03-14T04:35:01;19.43;;;11.77;;
22929;SDS011;11630;42.660;23.292;2023-03-14T04:37:32;18.83;;;11.40;;
22929;SDS011;11630;42.660;23.292;2023-03-14T04:40:03;20.27;;;11.43;;
22929;SDS011;11630;42.660;23.292;2023-03-14T04:42:35;23.30;;;12.10;;
22929;SDS011;11630;42.660;23.292;2023-03-14T04:45:06;18.10;;;11.87;;
22929;SDS011;11630;42.660;23.292;2023-03-14T04:47:37;25.33;;;11.77;;
22929;SDS011;11630;42.660;23.292;2023-03-14T04:50:08;20.30;;;12.23;;
22929;SDS011;11630;42.660;23.292;2023-03-14T04:52:39;16.43;;;10.67;;
22929;SDS011;11630;42.660;23.292;2023-03-14T04:55:10;17.37;;;10.93;;
22929;SDS011;11630;42.660;23.292;2023-03-14T04:57:42;22.97;;;12.67;;
22929;SDS011;11630;42.660;23.292;2023-03-14T05:00:13;21.70;;;11.87;;
22929;SDS011;11630;42.660;23.292;2023-03-14T05:02:45;19.53;;;12.23;;
22929;SDS011;11630;42.660;23.292;2023-03-14T05:05:15;24.00;;;12.13;;
22929;SDS011;11630;42.660;23.292;2023-03-14T05:07:45;16.57;;;12.17;;
22929;SDS011;11630;42.660;23.292;2023-03-14T05:10:15;19.43;;;12.73;;
22929;SDS011;11630;42.660;23.292;2023-03-14T05:12:47;18.93;;;11.87;;
22929;SDS011;11630;42.660;23.292;2023-03-14T05:15:18;31.00;;;15.03;;
22929;SDS011;11630;42.660;23.292;2023-03-14T05:17:49;32.23;;;17.00;;
22929;SDS011;11630;42.660;23.292;2023-03-14T05:20:21;21.43;;;13.10;;
22929;SDS011;11630;42.660;23.292;2023-03-14T05:22:52;26.70;;;13.73;;
22929;SDS011;11630;42.660;23.292;2023-03-14T05:25:23;28.53;;;13.67;;
22929;SDS011;11630;42.660;23.292;2023-03-14T05:27:54;31.83;;;13.20;;
22929;SDS011;11630;42.660;23.292;2023-03-14T05:30:25;33.23;;;12.73;;
22929;SDS011;11630;42.660;23.292;2023-03-14T05:32:56;30.03;;;13.47;;
22929;SDS011;11630;42.660;23.292;2023-03-14T05:35:27;20.87;;;12.63;;
22929;SDS011;11630;42.660;23.292;2023-03-14T05:37:57;32.90;;;13.93;;
22929;SDS011;11630;42.660;23.292;2023-03-14T05:40:27;27.90;;;13.83;;
22929;SDS011;11630;42.660;23.292;2023-03-14T05:42:59;28.90;;;14.67;;
22929;SDS011;11630;42.660;23.292;2023-03-14T05:45:30;22.93;;;13.57;;
22929;SDS011;11630;42.660;23.292;2023-03-14T05:48:02;26.20;;;14.63;;
22929;SDS011;11630;42.660;23.292;2023-03-14T05:50:33;29.93;;;14.40;;
22929;SDS011;11630;42.660;23.292;2023-03-14T05:53:04;34.03;;;14.27;;
22929;SDS011;11630;42.660;23.292;2023-03-14T05:55:35;25.80;;;15.63;;
22929;SDS011;11630;42.660;23.292;2023-03-14T05:58:06;26.03;;;14.97;;
22929;SDS011;11630;42.660;23.292;2023-03-14T06:00:37;30.67;;;16.33;;
22929;SDS011;11630;42.660;23.292;2023-03-14T06:03:08;41.20;;;15.27;;
22929;SDS011;11630;42.660;23.292;2023-03-14T06:05:37;19.57;;;14.30;;
22929;SDS011;11630;42.660;23.292;2023-03-14T06:08:08;21.83;;;14.40;;
22929;SDS011;11630;42.660;23.292;2023-03-14T06:10:38;35.13;;;15.00;;
22929;SDS011;11630;42.660;23.292;2023-03-14T06:13:09;33.77;;;15.23;;
22929;SDS011;11630;42.660;23.292;2023-03-14T06:15:40;27.07;;;16.10;;
22929;SDS011;11630;42.660;23.292;2023-03-14T06:18:10;24.57;;;14.43;;
22929;SDS011;11630;42.660;23.292;2023-03-14T06:20:44;31.13;;;15.87;;
22929;SDS011;11630;42.660;23.292;2023-03-14T06:23:15;35.87;;;16.87;;
22929;SDS011;11630;42.660;23.292;2023-03-14T06:25:46;25.20;;;16.17;;
22929;SDS011;11630;42.660;23.292;2023-03-14T06:28:16;23.13;;;15.50;;
22929;SDS011;11630;42.660;23.292;2023-03-14T06:30:47;31.60;;;14.87;;
22929;SDS011;11630;42.660;23.292;2023-03-14T06:33:17;26.73;;;14.63;;
22929;SDS011;11630;42.660;23.292;2023-03-14T06:35:46;23.63;;;15.07;;
22929;SDS011;11630;42.660;23.292;2023-03-14T06:38:17;26.43;;;15.87;;
22929;SDS011;11630;42.660;23.292;2023-03-14T06:40:47;22.10;;;14.10;;
22929;SDS011;11630;42.660;23.292;2023-03-14T06:43:18;17.40;;;12.60;;
22929;SDS011;11630;42.660;23.292;2023-03-14T06:45:49;20.80;;;14.07;;
22929;SDS011;11630;42.660;23.292;2023-03-14T06:48:20;17.53;;;12.90;;
22929;SDS011;11630;42.660;23.292;2023-03-14T06:50:50;21.87;;;14.10;;
22929;SDS011;11630;42.660;23.292;2023-03-14T06:53:20;30.97;;;12.33;;
22929;SDS011;11630;42.660;23.292;2023-03-14T06:55:51;21.33;;;13.40;;
22929;SDS011;11630;42.660;23.292;2023-03-14T06:58:21;22.90;;;13.07;;
22929;SDS011;11630;42.660;23.292;2023-03-14T07:00:55;28.13;;;13.20;;
22929;SDS011;11630;42.660;23.292;2023-03-14T07:03:26;22.77;;;12.97;;
22929;SDS011;11630;42.660;23.292;2023-03-14T07:05:57;23.33;;;13.83;;
22929;SDS011;11630;42.660;23.292;2023-03-14T07:08:31;23.93;;;14.00;;
22929;SDS011;11630;42.660;23.292;2023-03-14T07:11:02;19.63;;;14.60;;
22929;SDS011;11630;42.660;23.292;2023-03-14T07:13:33;20.40;;;13.10;;
22929;SDS011;11630;42.660;23.292;2023-03-14T07:16:03;16.90;;;12.70;;
22929;SDS011;11630;42.660;23.292;2023-03-14T07:18:34;19.27;;;11.30;;
22929;SDS011;11630;42.660;23.292;2023-03-14T07:21:06;25.23;;;12.87;;
22929;SDS011;11630;42.660;23.292;2023-03-14T07:23:37;22.87;;;12.73;;
22929;SDS011;11630;42.660;23.292;2023-03-14T07:26:08;20.90;;;12.43;;
22929;SDS011;11630;42.660;23.292;2023-03-14T07:28:39;18.13;;;12.33;;
22929;SDS011;11630;42.660;23.292;2023-03-14T07:31:10;18.33;;;11.07;;
22929;SDS011;11630;42.660;23.292;2023-03-14T07:33:43;16.87;;;11.37;;
22929;SDS011;11630;42.660;23.292;2023-03-14T07:36:14;17.60;;;12.83;;
22929;SDS011;11630;42.660;23.292;2023-03-14T07:38:44;14.57;;;11.43;;
22929;SDS011;11630;42.660;23.292;2023-03-14T07:41:15;18.93;;;11.00;;
22929;SDS011;11630;42.660;23.292;2023-03-14T07:43:46;22.33;;;11.83;;
22929;SDS011;11630;42.660;23.292;2023-03-14T07:46:16;19.33;;;10.13;;
22929;SDS011;11630;42.660;23.292;2023-03-14T07:48:47;11.00;;;9.27;;
22929;SDS011;11630;42.660;23.292;2023-03-14T07:51:19;14.73;;;9.50;;
22929;SDS011;11630;42.660;23.292;2023-03-14T07:53:50;16.80;;;9.13;;
22929;SDS011;11630;42.660;23.292;2023-03-14T07:56:20;26.73;;;10.00;;
22929;SDS011;11630;42.660;23.292;2023-03-14T07:58:51;19.83;;;8.97;;
22929;SDS011;11630;42.660;23.292;2023-03-14T08:01:22;18.43;;;8.70;;
22929;SDS011;11630;42.660;23.292;2023-03-14T08:03:53;29.87;;;11.67;;
22929;SDS011;11630;42.660;23.292;2023-03-14T08:06:24;38.30;;;10.80;;
22929;SDS011;11630;42.660;23.292;2023-03-14T08:08:55;18.90;;;10.50;;
22929;SDS011;11630;42.660;23.292;2023-03-14T08:11:25;13.93;;;9.40;;
22929;SDS011;11630;42.660;23.292;2023-03-14T08:13:57;16.87;;;10.07;;
22929;SDS011;11630;42.660;23.292;2023-03-14T08:16:27;13.13;;;9.20;;
22929;SDS011;11630;42.660;23.292;2023-03-14T08:18:58;20.00;;;9.73;;
22929;SDS011;11630;42.660;23.292;2023-03-14T08:21:28;27.80;;;10.63;;
22929;SDS011;11630;42.660;23.292;2023-03-14T08:23:59;16.83;;;10.17;;
22929;SDS011;11630;42.660;23.292;2023-03-14T08:26:30;17.17;;;10.40;;
22929;SDS011;11630;42.660;23.292;2023-03-14T08:29:00;15.53;;;9.57;;
22929;SDS011;11630;42.660;23.292;2023-03-14T08:31:31;20.00;;;11.17;;
22929;SDS011;11630;42.660;23.292;2023-03-14T08:34:05;21.53;;;11.40;;
22929;SDS011;11630;42.660;23.292;2023-03-14T08:36:35;37.00;;;13.23;;
22929;SDS011;11630;42.660;23.292;2023-03-14T08:39:06;22.13;;;12.17;;
22929;SDS011;11630;42.660;23.292;2023-03-14T08:41:37;21.07;;;12.17;;
22929;SDS011;11630;42.660;23.292;2023-03-14T08:44:08;18.53;;;12.60;;
22929;SDS011;11630;42.660;23.292;2023-03-14T08:46:39;19.53;;;11.27;;
22929;SDS011;11630;42.660;23.292;2023-03-14T08:49:09;29.13;;;13.17;;
22929;SDS011;11630;42.660;23.292;2023-03-14T08:51:39;21.80;;;12.87;;
22929;SDS011;11630;42.660;23.292;2023-03-14T08:54:12;24.13;;;13.30;;
22929;SDS011;11630;42.660;23.292;2023-03-14T08:56:42;23.73;;;14.10;;
22929;SDS011;11630;42.660;23.292;2023-03-14T08:59:13;17.47;;;13.80;;
22929;SDS011;11630;42.660;23.292;2023-03-14T09:01:44;20.70;;;12.77;;
22929;SDS011;11630;42.660;23.292;2023-03-14T09:04:15;25.17;;;18.10;;
22929;SDS011;11630;42.660;23.292;2023-03-14T09:06:45;16.13;;;11.67;;
22929;SDS011;11630;42.660;23.292;2023-03-14T09:09:16;16.47;;;12.30;;
22929;SDS011;11630;42.660;23.292;2023-03-14T09:11:47;19.80;;;13.03;;
22929;SDS011;11630;42.660;23.292;2023-03-14T09:14:18;17.67;;;12.67;;
22929;SDS011;11630;42.660;23.292;2023-03-14T09:16:49;17.40;;;11.67;;
22929;SDS011;11630;42.660;23.292;2023-03-14T09:19:19;20.93;;;11.33;;
22929;SDS011;11630;42.660;23.292;2023-03-14T09:21:51;53.17;;;15.17;;
22929;SDS011;11630;42.660;23.292;2023-03-14T09:24:23;33.03;;;10.60;;
22929;SDS011;11630;42.660;23.292;2023-03-14T09:26:55;17.03;;;9.87;;
22929;SDS011;11630;42.660;23.292;2023-03-14T09:29:26;54.97;;;14.97;;
22929;SDS011;11630;42.660;23.292;2023-03-14T09:31:57;46.63;;;14.40;;
22929;SDS011;11630;42.660;23.292;2023-03-14T09:34:30;37.67;;;15.57;;
22929;SDS011;11630;42.660;23.292;2023-03-14T09:37:00;28.37;;;11.93;;
22929;SDS011;11630;42.660;23.292;2023-03-14T09:39:31;23.63;;;10.97;;
22929;SDS011;11630;42.660;23.292;2023-03-14T09:42:02;24.70;;;10.73;;
22929;SDS011;11630;42.660;23.292;2023-03-14T09:44:39;27.63;;;17.17;;
22929;SDS011;11630;42.660;23.292;2023-03-14T09:47:06;12.87;;;9.47;;
22929;SDS011;11630;42.660;23.292;2023-03-14T09:49:39;19.03;;;12.33;;
22929;SDS011;11630;42.660;23.292;2023-03-14T09:52:26;33.37;;;11.60;;
22929;SDS011;11630;42.660;23.292;2023-03-14T09:54:59;26.57;;;13.07;;
22929;SDS011;11630;42.660;23.292;2023-03-14T09:57:34;33.87;;;12.90;;
22929;SDS011;11630;42.660;23.292;2023-03-14T10:00:06;17.60;;;9.40;;
22929;SDS011;11630;42.660;23.292;2023-03-14T10:02:53;15.23;;;8.97;;
22929;SDS011;11630;42.660;23.292;2023-03-14T10:05:25;9.87;;;8.33;;
22929;SDS011;11630;42.660;23.292;2023-03-14T10:07:55;10.73;;;8.20;;
22929;SDS011;11630;42.660;23.292;2023-03-14T10:10:26;15.70;;;9.47;;
22929;SDS011;11630;42.660;23.292;2023-03-14T10:13:05;20.60;;;10.80;;
22929;SDS011;11630;42.660;23.292;2023-03-14T10:15:32;11.50;;;9.37;;
22929;SDS011;11630;42.660;23.292;2023-03-14T10:18:05;11.40;;;7.97;;
22929;SDS011;11630;42.660;23.292;2023-03-14T10:20:47;15.10;;;8.20;;
22929;SDS011;11630;42.660;23.292;2023-03-14T10:23:24;21.00;;;9.23;;
22929;SDS011;11630;42.660;23.292;2023-03-14T10:28:47;10.50;;;9.00;;
22929;SDS011;11630;42.660;23.292;2023-03-14T10:31:24;12.63;;;8.70;;
22929;SDS011;11630;42.660;23.292;2023-03-14T10:33:58;11.87;;;8.17;;
22929;SDS011;11630;42.660;23.292;2023-03-14T10:36:29;33.20;;;10.13;;
22929;SDS011;11630;42.660;23.292;2023-03-14T10:42:05;12.83;;;7.80;;
22929;SDS011;11630;42.660;23.292;2023-03-14T10:44:58;13.13;;;9.37;;
22929;SDS011;11630;42.660;23.292;2023-03-14T10:47:32;14.60;;;9.20;;
22929;SDS011;11630;42.660;23.292;2023-03-14T10:52:52;15.97;;;9.77;;
22929;SDS011;11630;42.660;23.292;2023-03-14T10:55:24;18.57;;;10.20;;
22929;SDS011;11630;42.660;23.292;2023-03-14T10:57:55;29.40;;;10.87;;
22929;SDS011;11630;42.660;23.292;2023-03-14T11:00:27;21.87;;;9.37;;
22929;SDS011;11630;42.660;23.292;2023-03-14T11:03:04;31.40;;;10.73;;
22929;SDS011;11630;42.660;23.292;2023-03-14T11:05:55;17.23;;;8.37;;
22929;SDS011;11630;42.660;23.292;2023-03-14T11:08:45;22.73;;;8.60;;
22929;SDS011;11630;42.660;23.292;2023-03-14T11:11:26;13.53;;;7.57;;
22929;SDS011;11630;42.660;23.292;2023-03-14T11:14:02;24.87;;;8.20;;
22929;SDS011;11630;42.660;23.292;2023-03-14T11:16:52;10.47;;;6.27;;
22929;SDS011;11630;42.660;23.292;2023-03-14T11:22:22;15.17;;;5.87;;
22929;SDS011;11630;42.660;23.292;2023-03-14T11:27:43;8.43;;;5.60;;
22929;SDS011;11630;42.660;23.292;2023-03-14T11:30:25;6.40;;;5.43;;
22929;SDS011;11630;42.660;23.292;2023-03-14T11:33:08;8.63;;;4.93;;
22929;SDS011;11630;42.660;23.292;2023-03-14T11:38:53;7.07;;;5.10;;
22929;SDS011;11630;42.660;23.292;2023-03-14T11:41:45;11.33;;;5.43;;
22929;SDS011;11630;42.660;23.292;2023-03-14T11:44:04;8.43;;;4.93;;
22929;SDS011;11630;42.660;23.292;2023-03-14T11:46:59;9.67;;;4.80;;
22929;SDS011;11630;42.660;23.292;2023-03-14T11:49:47;10.10;;;4.73;;
22929;SDS011;11630;42.660;23.292;2023-03-14T11:52:22;6.03;;;4.23;;
22929;SDS011;11630;42.660;23.292;2023-03-14T11:55:17;15.83;;;4.50;;
22929;SDS011;11630;42.660;23.292;2023-03-14T11:58:13;8.17;;;3.93;;
22929;SDS011;11630;42.660;23.292;2023-03-14T12:00:57;9.50;;;4.73;;
22929;SDS011;11630;42.660;23.292;2023-03-14T12:06:17;25.33;;;7.57;;
22929;SDS011;11630;42.660;23.292;2023-03-14T12:08:54;51.37;;;9.87;;
22929;SDS011;11630;42.660;23.292;2023-03-14T12:14:24;6.60;;;4.37;;
22929;SDS011;11630;42.660;23.292;2023-03-14T12:17:17;5.80;;;4.20;;
22929;SDS011;11630;42.660;23.292;2023-03-14T12:19:40;9.37;;;4.43;;
22929;SDS011;11630;42.660;23.292;2023-03-14T12:22:25;4.83;;;3.43;;
22929;SDS011;11630;42.660;23.292;2023-03-14T12:24:57;5.37;;;3.70;;
22929;SDS011;11630;42.660;23.292;2023-03-14T12:27:41;5.50;;;3.70;;
22929;SDS011;11630;42.660;23.292;2023-03-14T12:35:50;6.20;;;3.20;;
22929;SDS011;11630;42.660;23.292;2023-03-14T12:41:15;17.07;;;4.63;;
22929;SDS011;11630;42.660;23.292;2023-03-14T12:43:56;23.33;;;5.80;;
22929;SDS011;11630;42.660;23.292;2023-03-14T12:46:28;6.20;;;3.87;;
22929;SDS011;11630;42.660;23.292;2023-03-14T13:00:18;13.03;;;4.83;;
22929;SDS011;11630;42.660;23.292;2023-03-14T13:02:29;5.43;;;2.90;;
22929;SDS011;11630;42.660;23.292;2023-03-14T13:05:11;9.43;;;3.07;;
22929;SDS011;11630;42.660;23.292;2023-03-14T13:10:24;18.73;;;5.67;;
22929;SDS011;11630;42.660;23.292;2023-03-14T13:12:57;12.83;;;3.10;;
22929;SDS011;11630;42.660;23.292;2023-03-14T13:15:45;18.13;;;4.13;;
22929;SDS011;11630;42.660;23.292;2023-03-14T13:18:19;5.17;;;2.63;;
22929;SDS011;11630;42.660;23.292;2023-03-14T13:21:17;10.80;;;3.53;;
22929;SDS011;11630;42.660;23.292;2023-03-14T13:23:58;5.30;;;2.77;;
22929;SDS011;11630;42.660;23.292;2023-03-14T13:26:39;14.80;;;2.93;;
22929;SDS011;11630;42.660;23.292;2023-03-14T13:29:28;6.20;;;2.93;;
22929;SDS011;11630;42.660;23.292;2023-03-14T13:32:00;32.83;;;6.73;;
22929;SDS011;11630;42.660;23.292;2023-03-14T13:34:32;24.30;;;5.90;;
22929;SDS011;11630;42.660;23.292;2023-03-14T13:37:13;14.90;;;3.90;;
22929;SDS011;11630;42.660;23.292;2023-03-14T13:39:50;6.17;;;3.80;;
22929;SDS011;11630;42.660;23.292;2023-03-14T13:42:24;7.30;;;2.80;;
22929;SDS011;11630;42.660;23.292;2023-03-14T13:44:56;3.03;;;2.40;;
22929;SDS011;11630;42.660;23.292;2023-03-14T13:47:29;5.27;;;2.70;;
22929;SDS011;11630;42.660;23.292;2023-03-14T13:50:00;16.00;;;4.13;;
22929;SDS011;11630;42.660;23.292;2023-03-14T13:52:32;9.07;;;3.73;;
22929;SDS011;11630;42.660;23.292;2023-03-14T13:55:14;29.57;;;6.53;;
22929;SDS011;11630;42.660;23.292;2023-03-14T13:57:49;67.57;;;10.37;;
22929;SDS011;11630;42.660;23.292;2023-03-14T14:00:27;15.50;;;4.07;;
22929;SDS011;11630;42.660;23.292;2023-03-14T14:02:55;37.87;;;6.87;;
22929;SDS011;11630;42.660;23.292;2023-03-14T14:05:28;30.40;;;7.40;;
22929;SDS011;11630;42.660;23.292;2023-03-14T14:07:59;11.67;;;2.60;;
22929;SDS011;11630;42.660;23.292;2023-03-14T14:10:30;2.57;;;2.13;;
22929;SDS011;11630;42.660;23.292;2023-03-14T14:13:03;9.63;;;2.80;;
22929;SDS011;11630;42.660;23.292;2023-03-14T14:15:36;5.07;;;2.27;;
22929;SDS011;11630;42.660;23.292;2023-03-14T14:18:07;10.47;;;2.53;;
22929;SDS011;11630;42.660;23.292;2023-03-14T14:20:40;10.43;;;2.90;;
22929;SDS011;11630;42.660;23.292;2023-03-14T14:23:19;3.77;;;1.97;;
22929;SDS011;11630;42.660;23.292;2023-03-14T14:25:50;10.43;;;2.27;;
22929;SDS011;11630;42.660;23.292;2023-03-14T14:28:32;5.47;;;2.17;;
22929;SDS011;11630;42.660;23.292;2023-03-14T14:31:04;6.43;;;2.33;;
22929;SDS011;11630;42.660;23.292;2023-03-14T14:33:41;2.63;;;2.13;;
22929;SDS011;11630;42.660;23.292;2023-03-14T14:36:16;2.43;;;2.10;;
22929;SDS011;11630;42.660;23.292;2023-03-14T14:38:54;3.00;;;2.30;;
22929;SDS011;11630;42.660;23.292;2023-03-14T14:41:39;6.93;;;3.23;;
22929;SDS011;11630;42.660;23.292;2023-03-14T14:44:11;4.70;;;2.40;;
22929;SDS011;11630;42.660;23.292;2023-03-14T14:47:01;3.80;;;2.53;;
22929;SDS011;11630;42.660;23.292;2023-03-14T14:49:27;9.40;;;2.33;;
22929;SDS011;11630;42.660;23.292;2023-03-14T14:52:02;4.03;;;2.57;;
22929;SDS011;11630;42.660;23.292;2023-03-14T14:54:34;2.60;;;2.23;;
22929;SDS011;11630;42.660;23.292;2023-03-14T14:57:27;6.37;;;2.33;;
22929;SDS011;11630;42.660;23.292;2023-03-14T15:00:05;4.77;;;2.57;;
22929;SDS011;11630;42.660;23.292;2023-03-14T15:02:35;6.13;;;2.30;;
22929;SDS011;11630;42.660;23.292;2023-03-14T15:05:11;5.90;;;1.83;;
22929;SDS011;11630;42.660;23.292;2023-03-14T15:07:43;6.33;;;2.37;;
22929;SDS011;11630;42.660;23.292;2023-03-14T15:10:15;4.97;;;2.23;;
22929;SDS011;11630;42.660;23.292;2023-03-14T15:12:46;6.40;;;2.10;;
22929;SDS011;11630;42.660;23.292;2023-03-14T15:15:17;26.23;;;4.07;;
22929;SDS011;11630;42.660;23.292;2023-03-14T15:17:48;6.20;;;2.10;;
22929;SDS011;11630;42.660;23.292;2023-03-14T15:20:19;5.07;;;2.30;;
22929;SDS011;11630;42.660;23.292;2023-03-14T15:22:50;2.13;;;1.93;;
22929;SDS011;11630;42.660;23.292;2023-03-14T15:25:20;5.87;;;2.07;;
22929;SDS011;11630;42.660;23.292;2023-03-14T15:27:51;10.97;;;2.50;;
22929;SDS011;11630;42.660;23.292;2023-03-14T15:30:23;6.67;;;2.30;;
22929;SDS011;11630;42.660;23.292;2023-03-14T15:32:53;5.37;;;2.50;;
22929;SDS011;11630;42.660;23.292;2023-03-14T15:35:24;6.27;;;2.67;;
22929;SDS011;11630;42.660;23.292;2023-03-14T15:37:55;4.37;;;2.90;;